createdAt,value
2022-08-11T00:01:20.933Z,9.25
2022-08-11T00:04:07.074Z,9.45
2022-08-11T00:06:53.627Z,10.95
2022-08-11T00:09:40.330Z,14.82
2022-08-11T00:12:27.957Z,11.32
2022-08-11T00:15:14.383Z,12.52
2022-08-11T00:18:01.345Z,10.20
2022-08-11T00:20:48.340Z,9.52
2022-08-11T00:23:39.500Z,7.95
2022-08-11T00:26:28.071Z,7.20
2022-08-11T00:29:15.555Z,7.15
2022-08-11T00:32:05.289Z,7.88
2022-08-11T00:34:51.905Z,7.72
2022-08-11T00:37:58.620Z,8.52
2022-08-11T00:41:06.005Z,7.75
2022-08-11T00:44:20.134Z,8.00
2022-08-11T00:47:36.494Z,7.32
2022-08-11T00:50:45.480Z,7.32
2022-08-11T00:53:52.720Z,8.57
2022-08-11T00:56:44.968Z,8.75
2022-08-11T00:59:49.255Z,9.63
2022-08-11T01:02:56.614Z,9.15
2022-08-11T01:06:23.140Z,10.02
2022-08-11T01:09:34.421Z,9.00
2022-08-11T01:12:41.686Z,10.25
2022-08-11T01:15:59.556Z,9.23
2022-08-11T01:19:23.397Z,8.55
2022-08-11T01:22:32.716Z,9.85
2022-08-11T01:25:35.164Z,8.98
2022-08-11T01:28:47.583Z,9.27
2022-08-11T01:31:57.772Z,8.88
2022-08-11T01:35:05.362Z,9.32
2022-08-11T01:38:32.452Z,8.35
2022-08-11T01:42:15.312Z,8.93
2022-08-11T01:45:22.495Z,9.95
2022-08-11T01:48:50.266Z,10.27
2022-08-11T01:51:57.902Z,9.48
2022-08-11T01:55:02.291Z,8.55
2022-08-11T01:58:02.832Z,11.35
2022-08-11T02:01:07.060Z,9.77
2022-08-11T02:04:11.828Z,10.98
2022-08-11T02:07:19.752Z,7.20
2022-08-11T02:10:38.286Z,8.95
2022-08-11T02:13:42.521Z,9.60
2022-08-11T02:16:53.391Z,10.65
2022-08-11T02:20:19.657Z,11.85
2022-08-11T02:24:04.029Z,10.98
2022-08-11T02:26:53.741Z,8.95
2022-08-11T02:33:04.783Z,10.60
2022-08-11T02:36:06.126Z,10.63
2022-08-11T02:39:03.628Z,10.25
2022-08-11T02:42:41.903Z,9.45
2022-08-11T02:45:54.932Z,7.47
2022-08-11T02:49:17.589Z,8.80
2022-08-11T02:52:34.403Z,9.00
2022-08-11T02:55:44.618Z,10.15
2022-08-11T02:59:34.540Z,9.73
2022-08-11T03:02:32.289Z,8.43
2022-08-11T03:05:39.218Z,8.40
2022-08-11T03:08:52.534Z,8.57
2022-08-11T03:12:28.586Z,8.60
2022-08-11T03:16:07.210Z,7.63
2022-08-11T03:18:58.638Z,6.70
2022-08-11T03:22:02.612Z,6.90
2022-08-11T03:25:13.033Z,7.75
2022-08-11T03:28:26.047Z,8.23
2022-08-11T03:31:19.271Z,9.23
2022-08-11T03:34:13.967Z,9.13
2022-08-11T03:37:50.458Z,7.28
2022-08-11T03:40:54.394Z,8.25
2022-08-11T03:44:07.538Z,9.13
2022-08-11T03:47:18.788Z,9.57
2022-08-11T03:50:46.828Z,10.82
2022-08-11T03:54:09.751Z,11.65
2022-08-11T03:57:21.119Z,13.48
2022-08-11T04:00:12.734Z,17.08
2022-08-11T04:03:37.656Z,13.02
2022-08-11T04:06:57.488Z,12.05
2022-08-11T04:10:21.412Z,12.80
2022-08-11T04:13:36.648Z,14.37
2022-08-11T04:16:44.143Z,14.10
2022-08-11T04:20:06.717Z,15.40
2022-08-11T04:24:34.846Z,17.48
2022-08-11T04:26:35.278Z,15.57
2022-08-11T04:30:00.893Z,13.85
2022-08-11T04:33:35.304Z,15.70
2022-08-11T04:37:01.713Z,14.27
2022-08-11T04:40:13.609Z,12.40
2022-08-11T04:43:27.497Z,12.25
2022-08-11T04:46:35.718Z,11.85
2022-08-11T04:50:15.151Z,12.63
2022-08-11T04:53:42.997Z,11.60
2022-08-11T04:56:50.228Z,11.43
2022-08-11T05:00:16.909Z,11.85
2022-08-11T05:03:09.873Z,13.20
2022-08-11T05:06:10.874Z,14.93
2022-08-11T05:09:20.047Z,16.83
2022-08-11T05:12:21.863Z,13.32
2022-08-11T05:15:42.658Z,11.73
2022-08-11T05:18:50.291Z,10.63
2022-08-11T05:21:56.617Z,10.40
2022-08-11T05:25:08.669Z,9.13
2022-08-11T05:28:38.225Z,9.02
2022-08-11T05:31:51.303Z,8.05
2022-08-11T05:34:51.885Z,8.43
2022-08-11T05:38:05.887Z,8.30
2022-08-11T05:41:13.840Z,9.27
2022-08-11T05:44:22.287Z,9.02
2022-08-11T05:47:28.360Z,9.82
2022-08-11T05:50:34.355Z,11.10
2022-08-11T05:53:45.840Z,10.77
2022-08-11T05:56:33.932Z,10.02
2022-08-11T05:59:21.446Z,9.73
2022-08-11T06:02:08.729Z,8.30
2022-08-11T06:05:02.067Z,6.90
2022-08-11T06:07:50.106Z,6.93
2022-08-11T06:10:42.283Z,4.43
2022-08-11T06:13:29.166Z,4.40
2022-08-11T06:16:21.129Z,4.28
2022-08-11T06:19:08.569Z,3.78
2022-08-11T06:21:54.900Z,3.55
2022-08-11T06:24:51.078Z,2.33
2022-08-11T06:27:39.002Z,2.92
2022-08-11T06:30:39.708Z,2.67
2022-08-11T06:33:39.707Z,3.13
2022-08-11T06:36:34.572Z,2.83
2022-08-11T06:39:23.497Z,3.03
2022-08-11T06:42:14.305Z,2.95
2022-08-11T06:45:35.248Z,2.67
2022-08-11T06:48:23.282Z,2.55
2022-08-11T06:51:13.567Z,1.50
2022-08-11T06:54:04.066Z,2.47
2022-08-11T06:57:29.275Z,1.52
2022-08-11T07:00:38.625Z,1.15
2022-08-11T07:03:28.818Z,1.85
2022-08-11T07:06:50.974Z,1.45
2022-08-11T07:10:19.647Z,1.25
2022-08-11T07:13:44.931Z,0.82
2022-08-11T07:16:34.865Z,1.30
2022-08-11T07:19:48.518Z,0.77
2022-08-11T07:22:55.329Z,0.82
2022-08-11T07:26:02.490Z,1.10
2022-08-11T07:28:56.479Z,0.75
2022-08-11T07:31:46.785Z,0.68
2022-08-11T07:34:44.174Z,1.00
2022-08-11T07:37:33.443Z,0.82
2022-08-11T07:40:24.513Z,1.20
2022-08-11T07:43:12.771Z,1.95
2022-08-11T07:46:17.793Z,1.60
2022-08-11T07:49:24.365Z,1.52
2022-08-11T07:52:34.012Z,2.00
2022-08-11T07:55:49.243Z,1.83
2022-08-11T07:58:53.288Z,1.65
2022-08-11T08:01:58.221Z,1.90
2022-08-11T08:05:05.237Z,1.55
2022-08-11T08:08:09.111Z,1.00
2022-08-11T08:11:15.465Z,0.90
2022-08-11T08:14:21.003Z,1.10
2022-08-11T08:17:27.219Z,0.90
2022-08-11T08:20:14.681Z,1.10
2022-08-11T08:23:02.911Z,1.08
2022-08-11T08:25:52.894Z,0.73
2022-08-11T08:28:40.000Z,0.80
2022-08-11T08:31:26.107Z,1.33
2022-08-11T08:34:13.040Z,1.40
2022-08-11T08:37:00.163Z,0.65
2022-08-11T08:39:47.381Z,0.90
2022-08-11T08:42:44.422Z,1.13
2022-08-11T08:45:37.668Z,1.40
2022-08-11T08:51:57.870Z,0.80
2022-08-11T08:54:40.071Z,1.23
2022-08-11T08:57:28.972Z,0.70
2022-08-11T09:00:19.391Z,0.50
2022-08-11T09:03:36.670Z,0.68
2022-08-11T09:06:17.311Z,0.63
2022-08-11T09:09:04.583Z,0.63
2022-08-11T09:11:51.020Z,0.52
2022-08-11T09:15:00.629Z,0.70
2022-08-11T09:17:49.347Z,0.70
2022-08-11T09:20:37.279Z,0.52
2022-08-11T09:24:07.992Z,0.90
2022-08-11T09:27:00.075Z,0.90
2022-08-11T09:29:46.322Z,0.80
2022-08-11T09:32:33.920Z,0.65
2022-08-11T09:35:22.052Z,0.60
2022-08-11T09:38:29.908Z,0.50
2022-08-11T09:41:15.793Z,0.70
2022-08-11T09:44:20.975Z,0.20
2022-08-11T09:47:15.463Z,0.47
2022-08-11T09:50:02.889Z,0.45
2022-08-11T09:53:16.783Z,0.22
2022-08-11T09:55:57.854Z,0.20
2022-08-11T09:58:45.098Z,0.50
2022-08-11T10:01:35.683Z,0.20
2022-08-11T10:04:31.261Z,0.20
2022-08-11T10:07:19.992Z,0.20
2022-08-11T10:10:06.975Z,0.20
2022-08-11T10:13:00.177Z,0.10
2022-08-11T10:18:54.029Z,0.25
2022-08-11T10:21:44.089Z,0.38
2022-08-11T10:24:48.688Z,0.22
2022-08-11T10:28:28.266Z,0.60
2022-08-11T10:30:59.024Z,0.30
2022-08-11T10:34:00.615Z,0.20
2022-08-11T10:36:50.457Z,0.20
2022-08-11T10:39:39.706Z,0.15
2022-08-11T10:42:57.548Z,0.20
2022-08-11T10:46:05.480Z,0.28
2022-08-11T10:48:51.391Z,0.20
2022-08-11T10:51:58.790Z,0.17
2022-08-11T10:55:03.106Z,0.13
2022-08-11T10:58:07.704Z,0.10
2022-08-11T11:00:57.011Z,0.38
2022-08-11T11:03:43.880Z,0.20
2022-08-11T11:06:50.658Z,0.20
2022-08-11T11:09:47.570Z,0.20
2022-08-11T11:13:03.077Z,0.10
2022-08-11T11:16:07.192Z,0.10
2022-08-11T11:19:00.934Z,0.10
2022-08-11T11:21:55.305Z,0.30
2022-08-11T11:25:08.392Z,0.10
2022-08-11T11:28:14.706Z,0.50
2022-08-11T11:31:40.669Z,0.20
2022-08-11T11:34:47.919Z,0.10
2022-08-11T11:37:40.883Z,0.30
2022-08-11T11:41:05.994Z,0.28
2022-08-11T11:43:55.211Z,0.10
2022-08-11T11:46:41.809Z,0.52
2022-08-11T11:49:39.487Z,0.20
2022-08-11T11:52:25.207Z,0.13
2022-08-11T11:55:11.356Z,0.73
2022-08-11T11:58:19.028Z,0.20
2022-08-11T12:01:16.969Z,0.20
2022-08-11T12:04:08.276Z,0.32
2022-08-11T12:07:14.833Z,0.20
2022-08-11T12:10:01.519Z,0.30
2022-08-11T12:13:06.815Z,0.13
2022-08-11T12:16:31.328Z,0.13
2022-08-11T12:19:00.805Z,0.22
2022-08-11T12:22:09.496Z,0.20
2022-08-11T12:25:14.615Z,0.20
2022-08-11T12:28:02.551Z,0.30
2022-08-11T12:30:53.737Z,0.30
2022-08-11T12:33:44.586Z,0.20
2022-08-11T12:36:36.862Z,0.30
2022-08-11T12:40:16.342Z,0.23
2022-08-11T12:43:20.769Z,0.20
2022-08-11T12:46:16.646Z,0.30
2022-08-11T12:49:31.280Z,0.25
2022-08-11T12:52:25.696Z,0.20
2022-08-11T12:55:37.653Z,0.20
2022-08-11T12:58:24.095Z,0.20
2022-08-11T13:01:29.583Z,0.22
2022-08-11T13:04:35.049Z,0.38
2022-08-11T13:07:21.275Z,0.43
2022-08-11T13:10:11.179Z,0.20
2022-08-11T13:13:05.494Z,0.30
2022-08-11T13:16:11.609Z,0.30
2022-08-11T13:19:01.298Z,0.30
2022-08-11T13:21:49.503Z,0.30
2022-08-11T13:24:36.558Z,0.22
2022-08-11T13:27:23.731Z,0.20
2022-08-11T13:30:28.623Z,0.20
2022-08-11T13:33:17.042Z,0.30
2022-08-11T13:36:03.566Z,0.38
2022-08-11T13:38:50.207Z,0.30
2022-08-11T13:41:41.192Z,0.20
2022-08-11T13:44:30.301Z,0.25
2022-08-11T13:47:17.042Z,0.20
2022-08-11T13:50:03.330Z,0.20
2022-08-11T13:52:53.145Z,0.20
2022-08-11T13:55:52.115Z,0.38
2022-08-11T13:58:39.975Z,0.20
2022-08-11T14:02:20.193Z,0.30
2022-08-11T14:04:49.241Z,0.43
2022-08-11T14:07:41.196Z,0.20
2022-08-11T14:10:31.202Z,0.32
2022-08-11T14:13:42.445Z,0.28
2022-08-11T14:16:40.692Z,0.30
2022-08-11T14:19:28.340Z,0.20
2022-08-11T14:22:17.020Z,0.22
2022-08-11T14:25:02.929Z,0.17
2022-08-11T14:28:31.753Z,0.20
2022-08-11T14:31:00.411Z,0.45
2022-08-11T14:33:59.320Z,0.30
2022-08-11T14:36:52.291Z,0.38
2022-08-11T14:39:46.429Z,0.32
2022-08-11T14:42:50.485Z,0.15
2022-08-11T14:46:02.131Z,0.17
2022-08-11T14:48:48.508Z,0.20
2022-08-11T14:51:35.183Z,0.10
2022-08-11T14:54:47.175Z,0.30
2022-08-11T14:57:55.652Z,0.20
2022-08-11T15:00:44.236Z,0.20
2022-08-11T15:03:33.816Z,0.32
2022-08-11T15:06:20.343Z,0.77
2022-08-11T15:09:09.269Z,0.20
2022-08-11T15:12:31.275Z,0.30
2022-08-11T15:15:35.885Z,0.30
2022-08-11T15:18:26.873Z,0.20
2022-08-11T15:21:31.146Z,0.47
2022-08-11T15:24:19.647Z,0.30
2022-08-11T15:27:35.609Z,0.20
2022-08-11T15:30:40.805Z,0.30
2022-08-11T15:33:48.015Z,0.20
2022-08-11T15:36:53.914Z,0.75
2022-08-11T15:40:08.111Z,0.70
2022-08-11T15:43:42.279Z,0.52
2022-08-11T15:46:40.852Z,0.35
2022-08-11T15:50:11.665Z,0.60
2022-08-11T15:52:56.212Z,0.47
2022-08-11T15:55:43.602Z,0.70
2022-08-11T15:59:35.073Z,0.47
2022-08-11T16:02:20.379Z,0.35
2022-08-11T16:05:13.932Z,0.30
2022-08-11T16:08:26.787Z,0.17
2022-08-11T16:11:19.797Z,0.20
2022-08-11T16:14:27.545Z,0.90
2022-08-11T16:17:17.158Z,0.60
2022-08-11T16:20:05.231Z,0.63
2022-08-11T16:22:55.179Z,0.30
2022-08-11T16:27:01.997Z,0.60
2022-08-11T16:28:58.587Z,0.30
2022-08-11T16:32:06.082Z,0.30
2022-08-11T16:35:24.341Z,0.32
2022-08-11T16:38:30.731Z,0.40
2022-08-11T16:41:41.840Z,0.43
2022-08-11T16:44:48.576Z,0.60
2022-08-11T16:48:03.182Z,0.60
2022-08-11T16:50:42.515Z,0.77
2022-08-11T16:53:46.118Z,0.40
2022-08-11T16:56:43.325Z,0.40
2022-08-11T16:59:38.436Z,0.40
2022-08-11T17:02:47.157Z,0.20
2022-08-11T17:05:55.225Z,0.30
2022-08-11T17:09:07.091Z,0.63
2022-08-11T17:12:16.647Z,0.43
2022-08-11T17:15:26.647Z,0.38
2022-08-11T17:18:35.883Z,0.50
2022-08-11T17:21:33.678Z,0.50
2022-08-11T17:24:20.006Z,0.93
2022-08-11T17:27:08.833Z,0.60
2022-08-11T17:30:01.421Z,0.50
2022-08-11T17:33:11.275Z,0.40
2022-08-11T17:35:57.922Z,0.45
2022-08-11T17:38:45.696Z,0.52
2022-08-11T17:41:50.240Z,0.52
2022-08-11T17:44:56.434Z,0.60
2022-08-11T17:48:04.059Z,0.70
2022-08-11T17:50:52.498Z,0.75
2022-08-11T17:54:17.972Z,0.50
2022-08-11T17:57:26.698Z,0.90
2022-08-11T18:00:13.449Z,0.50
2022-08-11T18:03:18.867Z,0.50
2022-08-11T18:06:06.694Z,0.55
2022-08-11T18:09:17.890Z,1.05
2022-08-11T18:12:25.447Z,0.82
2022-08-11T18:15:31.897Z,1.50
2022-08-11T18:18:36.549Z,0.70
2022-08-11T18:21:41.746Z,1.10
2022-08-11T18:24:50.340Z,0.90
2022-08-11T18:27:59.260Z,0.70
2022-08-11T18:31:12.337Z,0.73
2022-08-11T18:34:22.872Z,0.90
2022-08-11T18:37:35.356Z,0.73
2022-08-11T18:40:44.554Z,0.80
2022-08-11T18:43:53.525Z,1.95
2022-08-11T18:47:05.857Z,0.88
2022-08-11T18:50:14.528Z,2.13
2022-08-11T18:53:26.060Z,4.25
2022-08-11T18:56:31.070Z,5.53
2022-08-11T18:59:38.883Z,3.53
2022-08-11T19:02:49.415Z,2.47
2022-08-11T19:06:06.238Z,2.22
2022-08-11T19:09:23.694Z,2.40
2022-08-11T19:12:29.624Z,2.22
2022-08-11T19:15:35.091Z,1.45
2022-08-11T19:18:41.567Z,6.60
2022-08-11T19:21:48.052Z,2.70
2022-08-11T19:24:53.628Z,4.88
2022-08-11T19:28:00.135Z,2.97
2022-08-11T19:31:05.401Z,1.92
2022-08-11T19:34:11.012Z,2.40
2022-08-11T19:37:15.552Z,2.58
2022-08-11T19:40:28.833Z,3.22
2022-08-11T19:43:35.571Z,4.63
2022-08-11T19:46:42.389Z,4.88
2022-08-11T19:49:48.108Z,4.07
2022-08-11T19:52:54.609Z,6.30
2022-08-11T19:55:59.484Z,5.00
2022-08-11T19:59:04.132Z,6.22
2022-08-11T20:02:13.915Z,4.43
